logo
Rechercher aéroport 
image banner adimage banner adimage banner ad
image banner ad

SNQF - Fazenda Paraiso

Situé à Inocencia, Brazil

ICAO - SNQF, IATA -

Données fournies par Airmate  

Information générale

Coordonnées: S19°55'24" W52°9'39"
Élévation : 1414 feet MSL.
Variation magnétique : -19.718023593° East
Voir autres Aéroports à Ceará

Données opérationnelles

Special qualification required
Heure actuelle UTC:
Heure actuelle locale:
Météo à : - ( 0 km )
METAR: TJBQ 251750Z 34005KT 10SM CLR 29/24 A2996
Voir NOTAMs / SUP AIP / TFR affectant cet aéroport [VIEW]
Fréquences de communication: [VIEW]

Pistes:

Identifiant RWYQFULongueur (ft)Largeur (ft)SurfaceLDA (ft)
09311759EARTH
27311759EARTH

Coordonnées de l'aéroport

Adresse: Inocencia Brazil

Vue satellite de SNQF